Time;durP1;ratioP1;P1;durP2;ratioP2;P2;SDS_P1;SDS_P2;PMS_P1;PMS_P2;Temp;Humidity;BMP_temperature;BMP_pressure;BME280_temperature;BME280_humidity;BME280_pressure;Samples;Min_cycle;Max_cycle;Signal;HPM_P1;HPM_P2
2021/04/16 00:00:01;;;;;;;7.80;4.20;;;2.40;99.90;;;;;;5018130;28;20193;-83
2021/04/16 00:02:28;;;;;;;9.87;4.47;;;2.40;99.90;;;;;;5017363;28;20193;-84
2021/04/16 00:04:56;;;;;;;9.60;4.13;;;2.40;99.90;;;;;;5033266;28;20217;-83
2021/04/16 00:07:22;;;;;;;10.07;4.33;;;2.30;99.90;;;;;;5032819;28;20291;-83
2021/04/16 00:09:49;;;;;;;8.53;4.00;;;2.20;99.90;;;;;;5031819;28;20237;-83
2021/04/16 00:12:15;;;;;;;10.87;4.67;;;2.10;99.90;;;;;;5029402;28;20655;-83
2021/04/16 00:14:42;;;;;;;10.37;3.93;;;2.10;99.90;;;;;;5040280;28;20244;-83
2021/04/16 00:17:10;;;;;;;9.57;4.00;;;2.00;99.90;;;;;;5021631;28;20593;-83
2021/04/16 00:19:36;;;;;;;11.03;4.20;;;2.00;99.90;;;;;;5015112;28;20653;-83
2021/04/16 00:22:06;;;;;;;12.00;4.60;;;1.90;99.90;;;;;;5032964;28;20297;-83
2021/04/16 00:24:32;;;;;;;12.20;4.17;;;1.90;99.90;;;;;;5033674;28;20231;-84
2021/04/16 00:26:59;;;;;;;11.07;4.33;;;1.90;99.90;;;;;;5032574;28;20234;-83
2021/04/16 00:29:26;;;;;;;10.03;4.20;;;1.90;99.90;;;;;;5017962;28;20203;-83
2021/04/16 00:31:53;;;;;;;8.13;4.17;;;1.90;99.90;;;;;;5028935;28;20286;-83
2021/04/16 00:34:21;;;;;;;8.63;4.60;;;2.00;99.90;;;;;;5026876;28;20676;-85
2021/04/16 00:36:47;;;;;;;10.60;3.87;;;2.10;99.90;;;;;;5027875;28;20204;-83
2021/04/16 00:39:15;;;;;;;9.17;4.07;;;2.00;99.90;;;;;;5030125;28;20243;-84
2021/04/16 00:41:42;;;;;;;9.93;4.23;;;1.90;99.90;;;;;;5012589;28;20329;-83
2021/04/16 00:44:08;;;;;;;7.73;4.00;;;1.90;99.90;;;;;;5030380;28;20294;-84
2021/04/16 00:46:41;;;;;;;6.93;4.00;;;1.80;99.90;;;;;;5023924;28;20335;-84
2021/04/16 00:49:13;;;;;;;7.27;4.10;;;1.80;99.90;;;;;;5019711;28;20199;-84
2021/04/16 00:51:42;;;;;;;9.30;3.90;;;1.60;99.90;;;;;;5024655;28;20295;-84
2021/04/16 00:54:14;;;;;;;7.53;4.10;;;1.60;99.90;;;;;;5016035;28;20221;-84
2021/04/16 00:56:41;;;;;;;9.53;4.23;;;1.50;99.90;;;;;;5020563;28;20228;-84
2021/04/16 00:59:09;;;;;;;8.33;4.10;;;1.40;99.90;;;;;;5023475;28;20229;-84
2021/04/16 01:01:35;;;;;;;10.83;4.20;;;1.40;99.90;;;;;;5024952;28;20206;-83
2021/04/16 01:04:02;;;;;;;10.77;3.90;;;1.40;99.90;;;;;;5032265;28;20724;-83
2021/04/16 01:06:28;;;;;;;9.20;3.97;;;1.40;99.90;;;;;;5025037;28;20918;-84
2021/04/16 01:08:55;;;;;;;11.93;3.90;;;1.30;99.90;;;;;;5012157;28;20209;-84
2021/04/16 01:11:22;;;;;;;9.33;4.20;;;1.30;99.90;;;;;;5012374;28;20206;-84
2021/04/16 01:13:50;;;;;;;8.43;4.10;;;1.20;99.90;;;;;;5028202;28;20220;-83
2021/04/16 01:16:18;;;;;;;8.67;4.00;;;1.20;99.90;;;;;;5024644;28;20623;-84
2021/04/16 01:18:49;;;;;;;10.97;4.13;;;1.20;99.90;;;;;;5035782;28;20257;-84
2021/04/16 01:21:24;;;;;;;8.37;4.40;;;1.10;99.90;;;;;;5031461;28;20280;-83
2021/04/16 01:23:55;;;;;;;11.17;4.10;;;1.10;99.90;;;;;;5026325;28;20295;-84
2021/04/16 01:26:26;;;;;;;7.83;3.50;;;1.10;99.90;;;;;;5038850;28;20227;-84
2021/04/16 01:28:54;;;;;;;10.00;4.00;;;1.00;99.90;;;;;;5031574;28;20220;-83
2021/04/16 01:31:22;;;;;;;7.90;3.53;;;1.10;99.90;;;;;;5024247;28;20221;-84
2021/04/16 01:33:49;;;;;;;8.47;3.90;;;1.10;99.90;;;;;;5011929;28;20201;-84
2021/04/16 01:36:19;;;;;;;9.87;3.40;;;1.00;99.90;;;;;;5011060;28;20253;-84
2021/04/16 01:38:46;;;;;;;11.00;4.07;;;1.00;99.90;;;;;;5011767;28;20256;-84
2021/04/16 01:41:14;;;;;;;7.50;4.00;;;0.90;99.90;;;;;;5011594;28;20646;-83
2021/04/16 01:43:43;;;;;;;8.03;3.73;;;1.00;99.90;;;;;;5011833;28;20221;-83
2021/04/16 01:46:13;;;;;;;10.03;4.00;;;1.00;99.90;;;;;;5011415;28;20264;-83
2021/04/16 01:48:43;;;;;;;8.13;3.73;;;0.90;99.90;;;;;;5025048;28;20288;-83
2021/04/16 01:51:16;;;;;;;12.90;4.13;;;0.80;99.90;;;;;;5031022;28;20273;-83
2021/04/16 01:53:43;;;;;;;9.97;3.77;;;0.80;99.90;;;;;;5014445;28;20208;-83
2021/04/16 01:56:09;;;;;;;11.17;4.67;;;0.90;99.90;;;;;;5026878;28;20264;-83
2021/04/16 01:58:36;;;;;;;7.13;3.93;;;0.80;99.90;;;;;;5020152;28;20208;-84
2021/04/16 02:01:05;;;;;;;8.03;4.00;;;0.80;99.90;;;;;;5012194;28;20284;-84
2021/04/16 02:03:32;;;;;;;9.50;4.73;;;0.90;99.90;;;;;;5019674;28;20223;-84
2021/04/16 02:05:59;;;;;;;8.57;4.10;;;0.90;99.90;;;;;;5039634;28;20637;-83
2021/04/16 02:08:25;;;;;;;9.67;4.20;;;0.80;99.90;;;;;;5019961;28;20343;-83
2021/04/16 02:10:54;;;;;;;9.30;4.33;;;0.80;99.90;;;;;;5012537;28;20233;-83
2021/04/16 02:13:20;;;;;;;9.43;3.80;;;0.80;99.90;;;;;;5018683;28;20260;-84
2021/04/16 02:15:47;;;;;;;6.87;3.70;;;0.70;99.90;;;;;;5021024;28;20286;-84
2021/04/16 02:18:15;;;;;;;10.27;4.40;;;0.70;99.90;;;;;;5023774;28;20320;-84
2021/04/16 02:20:41;;;;;;;12.83;4.87;;;0.70;99.90;;;;;;5027972;28;20437;-84
2021/04/16 02:23:08;;;;;;;9.47;4.20;;;0.70;99.90;;;;;;5032132;28;20316;-84
2021/04/16 02:25:34;;;;;;;10.10;4.07;;;0.70;99.90;;;;;;5032475;28;20315;-84
2021/04/16 02:28:00;;;;;;;10.33;4.87;;;0.70;99.90;;;;;;5027609;28;20202;-84
2021/04/16 02:30:31;;;;;;;10.10;4.53;;;0.60;99.90;;;;;;5013929;28;20224;-84
2021/04/16 02:32:58;;;;;;;9.53;4.20;;;0.60;99.90;;;;;;5029996;28;20242;-84
2021/04/16 02:35:26;;;;;;;9.23;4.20;;;0.50;99.90;;;;;;5036554;28;20772;-84
2021/04/16 02:37:54;;;;;;;7.37;4.30;;;0.50;99.90;;;;;;5014594;28;20264;-84
2021/04/16 02:40:23;;;;;;;8.23;4.80;;;0.50;99.90;;;;;;5022321;28;20235;-84
2021/04/16 02:42:52;;;;;;;11.20;4.47;;;0.50;99.90;;;;;;5034336;28;20284;-84
2021/04/16 02:45:19;;;;;;;12.13;5.30;;;0.50;99.90;;;;;;5028862;28;20204;-84
2021/04/16 02:47:46;;;;;;;11.50;5.03;;;0.50;99.90;;;;;;5025369;28;20231;-84
2021/04/16 02:50:16;;;;;;;14.63;4.90;;;0.50;99.90;;;;;;5014614;28;20209;-84
2021/04/16 02:52:43;;;;;;;12.93;5.10;;;0.40;99.90;;;;;;5018989;28;20204;-84
2021/04/16 02:55:11;;;;;;;10.50;5.07;;;0.60;99.90;;;;;;5031261;28;20611;-84
2021/04/16 02:57:37;;;;;;;11.33;5.10;;;0.50;99.90;;;;;;5014635;28;20201;-83
2021/04/16 03:00:05;;;;;;;9.63;5.20;;;0.50;99.90;;;;;;5025041;28;20235;-84
2021/04/16 03:02:32;;;;;;;14.77;6.10;;;0.50;99.90;;;;;;5028994;28;20304;-84
2021/04/16 03:04:58;;;;;;;10.90;5.00;;;0.50;99.90;;;;;;5019130;28;20612;-84
2021/04/16 03:07:25;;;;;;;9.37;4.87;;;0.50;99.90;;;;;;5014449;28;20201;-84
2021/04/16 03:09:52;;;;;;;11.43;5.23;;;0.40;99.90;;;;;;5023452;28;20715;-84
2021/04/16 03:12:19;;;;;;;12.50;4.90;;;0.30;99.90;;;;;;5033782;28;20251;-85
2021/04/16 03:14:45;;;;;;;10.97;4.67;;;0.40;99.90;;;;;;5034531;28;20197;-85
2021/04/16 03:17:12;;;;;;;10.20;4.77;;;0.30;99.90;;;;;;5033996;28;20223;-83
2021/04/16 03:19:39;;;;;;;9.43;4.80;;;0.20;99.90;;;;;;5033701;28;20302;-84
2021/04/16 03:22:05;;;;;;;9.57;5.00;;;0.10;99.90;;;;;;5021582;28;20225;-83
2021/04/16 03:24:31;;;;;;;10.03;5.23;;;0.20;99.90;;;;;;5012798;28;20299;-85
2021/04/16 03:26:59;;;;;;;13.37;5.33;;;0.10;99.90;;;;;;5021730;28;20200;-83
2021/04/16 03:29:25;;;;;;;9.90;5.73;;;0.10;99.90;;;;;;5033619;28;20239;-85
2021/04/16 03:31:52;;;;;;;11.80;5.33;;;0.10;99.90;;;;;;5033042;28;20192;-84
2021/04/16 03:34:18;;;;;;;13.03;5.53;;;0.10;99.90;;;;;;5021328;28;20674;-85
2021/04/16 03:36:45;;;;;;;10.93;5.40;;;0.10;99.90;;;;;;5033024;28;20669;-84
2021/04/16 03:39:13;;;;;;;11.03;5.47;;;0.10;99.90;;;;;;5023104;28;20211;-85
2021/04/16 03:41:39;;;;;;;14.27;5.90;;;0.00;99.90;;;;;;5014375;28;20234;-85
2021/04/16 03:44:07;;;;;;;9.87;5.57;;;0.00;99.90;;;;;;5013651;28;20261;-84
2021/04/16 03:46:33;;;;;;;16.33;5.90;;;0.00;99.90;;;;;;5013678;28;20320;-85
2021/04/16 03:49:00;;;;;;;13.97;5.97;;;0.00;99.90;;;;;;5024383;28;20225;-84
2021/04/16 03:51:26;;;;;;;11.20;5.90;;;0.00;99.90;;;;;;5032467;28;20205;-84
2021/04/16 03:53:53;;;;;;;12.70;5.70;;;0.00;99.90;;;;;;5033176;28;20232;-85
2021/04/16 03:56:19;;;;;;;15.07;5.83;;;0.00;99.90;;;;;;5032843;28;20208;-84
2021/04/16 03:58:46;;;;;;;11.73;6.00;;;0.00;99.90;;;;;;5019653;28;20280;-85
2021/04/16 04:01:16;;;;;;;11.93;6.30;;;0.00;99.90;;;;;;5013045;28;20719;-85
2021/04/16 04:03:43;;;;;;;10.90;5.53;;;0.00;99.90;;;;;;5014336;28;20225;-85
2021/04/16 04:06:09;;;;;;;8.50;5.60;;;0.00;99.90;;;;;;5032580;28;20218;-84
2021/04/16 04:08:36;;;;;;;12.87;6.00;;;0.00;99.90;;;;;;5033280;28;20391;-85
2021/04/16 04:11:02;;;;;;;11.10;6.07;;;-0.10;99.90;;;;;;5032537;28;20211;-85
2021/04/16 04:13:29;;;;;;;14.07;5.87;;;-0.20;99.90;;;;;;5041223;28;20229;-85
2021/04/16 04:15:55;;;;;;;12.20;6.10;;;-0.10;99.90;;;;;;5013295;28;20296;-85
2021/04/16 04:18:23;;;;;;;13.23;6.17;;;-0.20;99.90;;;;;;5012851;28;20335;-85
2021/04/16 04:20:49;;;;;;;12.27;6.97;;;0.00;99.90;;;;;;5013715;28;20296;-85
2021/04/16 04:23:16;;;;;;;11.63;6.60;;;0.00;99.90;;;;;;5019535;28;20283;-85
2021/04/16 04:25:42;;;;;;;10.80;6.00;;;-0.10;99.90;;;;;;5016258;28;20197;-85
2021/04/16 04:28:08;;;;;;;13.37;6.60;;;-0.20;99.90;;;;;;5030010;28;20287;-85
2021/04/16 04:30:37;;;;;;;11.67;6.67;;;-0.10;99.90;;;;;;5025488;28;20681;-85
2021/04/16 04:33:04;;;;;;;11.50;7.00;;;-0.20;99.90;;;;;;5012871;28;20616;-85
2021/04/16 04:35:31;;;;;;;13.20;6.57;;;-0.20;99.90;;;;;;5012576;28;20316;-85
2021/04/16 04:37:58;;;;;;;11.00;5.90;;;-0.30;99.90;;;;;;5032991;28;20571;-85
2021/04/16 04:40:26;;;;;;;13.33;6.50;;;-0.30;99.90;;;;;;5017757;28;20744;-84
2021/04/16 04:42:53;;;;;;;10.47;6.10;;;-0.30;99.90;;;;;;5012306;28;20228;-83
2021/04/16 04:45:20;;;;;;;12.87;6.60;;;-0.40;99.90;;;;;;5012603;28;20236;-85
2021/04/16 04:47:47;;;;;;;15.13;7.70;;;-0.40;99.90;;;;;;5012531;28;20685;-85
2021/04/16 04:50:14;;;;;;;14.53;7.63;;;-0.40;99.90;;;;;;5018218;28;20231;-84
2021/04/16 04:52:42;;;;;;;15.50;7.40;;;-0.40;99.90;;;;;;5024574;28;20659;-82
2021/04/16 04:55:11;;;;;;;18.47;8.23;;;-0.30;99.90;;;;;;5031377;28;20287;-84
2021/04/16 04:57:38;;;;;;;14.97;8.07;;;-0.10;99.90;;;;;;5019787;28;20287;-83
2021/04/16 05:00:07;;;;;;;12.40;7.67;;;-0.20;99.90;;;;;;5012853;28;20232;-85
2021/04/16 05:02:34;;;;;;;11.17;6.90;;;-0.30;99.90;;;;;;5015688;28;20228;-83
2021/04/16 05:05:01;;;;;;;13.03;7.40;;;-0.30;99.90;;;;;;5019685;28;20309;-85
2021/04/16 05:07:27;;;;;;;18.03;8.30;;;-0.30;99.90;;;;;;5026124;28;20211;-85
2021/04/16 05:09:55;;;;;;;16.73;8.30;;;-0.30;99.90;;;;;;5023480;28;20196;-85
2021/04/16 05:12:21;;;;;;;16.07;8.20;;;-0.20;99.90;;;;;;5030548;28;20627;-84
2021/04/16 05:14:48;;;;;;;13.43;7.33;;;-0.20;99.90;;;;;;5032551;28;20232;-84
2021/04/16 05:17:15;;;;;;;14.33;8.00;;;-0.20;99.90;;;;;;5034134;28;20288;-85
2021/04/16 05:19:41;;;;;;;13.90;7.73;;;-0.30;99.90;;;;;;5033546;28;20247;-85
2021/04/16 05:22:08;;;;;;;15.40;8.50;;;-0.30;99.90;;;;;;5016399;28;20731;-84
2021/04/16 05:24:36;;;;;;;14.43;8.40;;;-0.30;99.90;;;;;;5012827;28;20240;-83
2021/04/16 05:27:06;;;;;;;14.07;7.97;;;-0.30;99.90;;;;;;5021418;28;20232;-84
2021/04/16 05:29:33;;;;;;;15.53;8.50;;;-0.20;99.90;;;;;;5028343;28;20205;-81
2021/04/16 05:32:00;;;;;;;15.20;8.40;;;-0.20;99.90;;;;;;5026517;28;20574;-82
2021/04/16 05:34:27;;;;;;;17.93;8.70;;;-0.20;99.90;;;;;;5029046;28;20242;-82
2021/04/16 05:36:54;;;;;;;15.97;9.40;;;-0.20;99.90;;;;;;5031392;28;20694;-83
2021/04/16 05:39:20;;;;;;;15.67;9.27;;;-0.10;99.90;;;;;;5039929;28;20609;-82
2021/04/16 05:41:47;;;;;;;16.60;9.20;;;0.10;99.90;;;;;;5038231;28;20313;-82
2021/04/16 05:44:15;;;;;;;17.10;9.20;;;0.10;99.90;;;;;;5018204;28;20314;-83
2021/04/16 05:46:41;;;;;;;15.83;8.50;;;0.20;99.90;;;;;;5032303;28;20208;-83
2021/04/16 05:49:08;;;;;;;15.73;9.00;;;0.30;99.90;;;;;;5013682;28;20240;-82
2021/04/16 05:51:35;;;;;;;17.93;10.23;;;0.30;99.90;;;;;;5013296;28;20288;-83
2021/04/16 05:54:02;;;;;;;15.50;10.00;;;0.50;99.90;;;;;;5019297;28;20664;-82
2021/04/16 05:56:28;;;;;;;16.87;9.47;;;0.80;99.90;;;;;;5026512;28;20224;-83
2021/04/16 05:58:55;;;;;;;14.73;9.47;;;1.30;99.90;;;;;;5017631;28;20296;-82
2021/04/16 06:01:22;;;;;;;12.87;8.30;;;1.70;99.90;;;;;;5016636;28;20207;-81
2021/04/16 06:03:49;;;;;;;17.23;8.47;;;2.10;99.90;;;;;;5037144;28;20295;-80
2021/04/16 06:06:16;;;;;;;12.07;8.50;;;2.60;99.90;;;;;;5028480;28;20234;-81
2021/04/16 06:08:43;;;;;;;17.87;9.80;;;3.00;99.90;;;;;;5029690;28;20638;-82
2021/04/16 06:11:10;;;;;;;16.10;9.73;;;3.30;99.90;;;;;;5036849;28;20210;-81
2021/04/16 06:13:37;;;;;;;13.27;8.70;;;3.50;99.90;;;;;;5035740;28;20286;-82
2021/04/16 06:16:06;;;;;;;21.43;13.80;;;3.80;99.90;;;;;;5027022;28;20679;-82
2021/04/16 06:18:34;;;;;;;18.87;13.20;;;4.20;99.90;;;;;;5016811;28;20397;-82
2021/04/16 06:21:00;;;;;;;16.73;11.00;;;4.40;99.90;;;;;;5032463;28;20702;-82
2021/04/16 06:23:27;;;;;;;14.40;10.53;;;4.70;99.90;;;;;;5043355;28;20207;-81
2021/04/16 06:25:53;;;;;;;13.93;10.13;;;5.00;99.90;;;;;;5015993;28;20240;-82
2021/04/16 06:28:21;;;;;;;16.20;10.77;;;5.50;99.90;;;;;;5036838;28;20234;-81
2021/04/16 06:30:47;;;;;;;14.17;9.97;;;6.20;99.90;;;;;;5048963;28;20208;-83
2021/04/16 06:33:22;;;;;;;14.33;10.17;;;7.10;99.90;;;;;;5035023;28;20605;-84
2021/04/16 06:35:52;;;;;;;14.93;10.33;;;7.40;99.90;;;;;;5036036;28;20384;-84
2021/04/16 06:38:21;;;;;;;14.17;10.97;;;8.20;99.90;;;;;;5020243;28;20267;-84
2021/04/16 06:40:49;;;;;;;15.77;10.33;;;8.10;99.90;;;;;;5016185;28;20259;-84
2021/04/16 06:43:17;;;;;;;17.07;10.57;;;7.90;99.90;;;;;;5041829;28;20283;-82
2021/04/16 06:45:45;;;;;;;14.67;11.07;;;8.00;99.90;;;;;;5031618;28;20193;-90
2021/04/16 06:48:12;;;;;;;14.30;10.60;;;8.20;99.90;;;;;;5020591;28;20649;-90
2021/04/16 06:50:41;;;;;;;16.17;11.33;;;9.00;99.90;;;;;;5020863;28;20339;-91
2021/04/16 06:53:32;;;;;;;15.87;11.10;;;9.30;99.90;;;;;;5020930;28;20669;-91
2021/04/16 06:56:02;;;;;;;14.40;12.07;;;9.20;99.90;;;;;;5019735;28;20215;-90
2021/04/16 06:58:32;;;;;;;13.00;11.23;;;9.40;99.90;;;;;;5022303;28;20211;-90
2021/04/16 07:01:08;;;;;;;15.60;12.27;;;10.10;99.90;;;;;;5026055;28;20203;-85
2021/04/16 07:03:41;;;;;;;16.57;12.47;;;9.90;99.90;;;;;;5018438;28;20256;-88
2021/04/16 07:06:16;;;;;;;15.90;12.80;;;9.90;99.90;;;;;;5037733;28;20223;-91
2021/04/16 07:08:46;;;;;;;18.17;13.30;;;9.70;99.90;;;;;;5032350;28;20192;-89
2021/04/16 07:11:29;;;;;;;16.73;13.13;;;9.50;99.90;;;;;;5020753;28;20228;-89
2021/04/16 07:13:58;;;;;;;16.80;13.90;;;9.50;99.90;;;;;;5035696;28;20273;-89
2021/04/16 07:16:26;;;;;;;15.77;13.13;;;9.60;99.90;;;;;;5038105;28;20213;-86
2021/04/16 07:18:56;;;;;;;14.80;12.03;;;10.10;99.90;;;;;;5020422;28;20230;-88
2021/04/16 07:21:23;;;;;;;15.77;13.43;;;10.50;99.90;;;;;;5034280;28;20211;-84
2021/04/16 07:23:53;;;;;;;15.53;13.33;;;11.10;99.90;;;;;;5024871;28;20224;-89
2021/04/16 07:26:39;;;;;;;17.23;12.97;;;11.80;99.90;;;;;;5050340;28;20574;-88
2021/04/16 07:29:19;;;;;;;15.47;13.87;;;12.80;99.90;;;;;;4999579;28;20288;-89
2021/04/16 07:31:58;;;;;;;14.50;13.00;;;12.20;99.90;;;;;;5040936;28;20834;-89
2021/04/16 07:34:34;;;;;;;18.07;13.70;;;12.50;99.90;;;;;;5034197;28;20223;-87
2021/04/16 07:37:12;;;;;;;16.37;13.53;;;11.90;99.90;;;;;;5030742;28;20193;-87
2021/04/16 07:39:45;;;;;;;15.90;13.53;;;12.40;99.90;;;;;;5034372;28;21025;-89
2021/04/16 07:42:35;;;;;;;15.53;13.83;;;12.10;99.90;;;;;;5034288;28;20667;-89
2021/04/16 07:45:09;;;;;;;16.27;14.57;;;11.80;99.90;;;;;;5034620;28;20220;-89
2021/04/16 07:47:38;;;;;;;17.07;14.37;;;12.30;99.90;;;;;;5032328;28;20208;-89
2021/04/16 07:50:27;;;;;;;17.97;14.97;;;12.50;99.90;;;;;;5028680;28;20197;-88
2021/04/16 07:53:03;;;;;;;15.87;14.27;;;11.20;99.90;;;;;;5021778;28;20282;-88
2021/04/16 07:55:31;;;;;;;15.87;14.27;;;11.70;99.90;;;;;;5039780;28;20212;-89
2021/04/16 07:58:08;;;;;;;16.67;14.87;;;11.90;99.90;;;;;;5033960;28;20204;-89
2021/04/16 08:00:38;;;;;;;17.93;14.33;;;12.40;99.90;;;;;;5023304;28;20197;-89
2021/04/16 08:03:14;;;;;;;17.53;15.07;;;12.30;99.90;;;;;;5023243;28;20679;-85
2021/04/16 08:05:44;;;;;;;17.13;15.20;;;12.40;99.90;;;;;;5020643;28;20226;-83
2021/04/16 08:08:25;;;;;;;18.63;15.17;;;13.20;99.90;;;;;;5029532;28;20672;-85
2021/04/16 08:11:08;;;;;;;16.40;14.73;;;12.90;99.90;;;;;;5032681;28;20193;-86
2021/04/16 08:13:38;;;;;;;17.40;15.60;;;13.50;99.90;;;;;;5027724;28;20224;-87
2021/04/16 08:16:18;;;;;;;17.87;15.97;;;12.40;99.90;;;;;;5020451;28;20208;-84
2021/04/16 08:18:47;;;;;;;16.70;14.97;;;12.70;99.90;;;;;;5013922;28;20604;-87
2021/04/16 08:21:16;;;;;;;16.50;14.90;;;12.90;99.90;;;;;;5017674;28;20204;-85
2021/04/16 08:23:52;;;;;;;17.30;15.47;;;13.50;99.90;;;;;;5033549;28;20222;-85
2021/04/16 08:26:29;;;;;;;18.73;16.47;;;13.40;99.90;;;;;;5031934;28;20196;-86
2021/04/16 08:29:05;;;;;;;17.17;15.43;;;14.10;99.90;;;;;;5028318;28;21097;-87
2021/04/16 08:31:39;;;;;;;18.13;16.33;;;14.60;99.90;;;;;;5032524;28;20200;-87
2021/04/16 08:34:09;;;;;;;18.60;16.77;;;15.00;99.90;;;;;;5015567;28;20197;-87
2021/04/16 08:36:41;;;;;;;21.13;18.10;;;14.50;99.90;;;;;;5034092;28;20204;-89
2021/04/16 08:39:17;;;;;;;20.57;18.47;;;14.40;99.90;;;;;;5032539;28;20207;-89
2021/04/16 08:41:52;;;;;;;20.03;17.63;;;14.30;99.90;;;;;;5025795;28;20224;-87
2021/04/16 08:44:21;;;;;;;21.07;18.87;;;14.80;99.90;;;;;;5029144;28;20744;-89
2021/04/16 08:46:54;;;;;;;19.53;17.57;;;14.90;99.90;;;;;;5024539;28;20227;-88
2021/04/16 08:49:28;;;;;;;20.83;18.83;;;14.80;99.90;;;;;;5017201;28;20249;-89
2021/04/16 08:51:59;;;;;;;20.83;18.63;;;14.70;99.90;;;;;;5008300;28;20217;-89
2021/04/16 08:54:35;;;;;;;19.83;17.93;;;14.60;99.90;;;;;;5011265;28;20196;-88
2021/04/16 08:57:22;;;;;;;19.57;17.63;;;14.60;99.90;;;;;;5028688;28;20660;-88
2021/04/16 09:00:06;;;;;;;19.97;17.97;;;15.10;99.90;;;;;;5016192;28;20271;-88
2021/04/16 09:02:51;;;;;;;19.83;17.83;;;15.30;99.90;;;;;;5024141;28;20205;-88
2021/04/16 09:05:26;;;;;;;19.17;17.23;;;15.00;99.90;;;;;;5031746;28;20216;-87
2021/04/16 09:07:57;;;;;;;18.27;16.40;;;14.80;99.90;;;;;;5027631;28;20240;-87
2021/04/16 09:10:47;;;;;;;18.13;16.27;;;14.40;99.90;;;;;;5025717;28;20587;-85
2021/04/16 09:13:56;;;;;;;18.20;16.30;;;13.80;99.90;;;;;;5024055;28;21076;-87
2021/04/16 09:16:49;;;;;;;17.43;15.70;;;14.60;99.90;;;;;;5012467;28;20201;-87
2021/04/16 09:19:57;;;;;;;15.77;14.07;;;15.30;99.90;;;;;;5023705;28;20298;-83
2021/04/16 09:22:44;;;;;;;13.57;12.17;;;15.00;99.90;;;;;;5030507;28;20200;-86
2021/04/16 09:25:38;;;;;;;14.13;12.73;;;14.80;99.90;;;;;;5026475;28;20224;-85
2021/04/16 09:28:36;;;;;;;14.73;13.23;;;15.50;99.90;;;;;;5030853;28;20676;-86
2021/04/16 09:31:42;;;;;;;14.67;13.13;;;14.90;99.90;;;;;;5024560;28;20660;-87
2021/04/16 09:34:18;;;;;;;16.50;13.57;;;15.30;99.90;;;;;;5019930;28;20204;-86
2021/04/16 09:37:04;;;;;;;14.63;13.10;;;15.20;99.90;;;;;;5027448;28;20243;-87
2021/04/16 09:39:36;;;;;;;14.40;12.90;;;16.00;99.90;;;;;;5017313;28;20606;-87
2021/04/16 09:42:31;;;;;;;13.60;12.17;;;15.50;97.80;;;;;;5026807;28;20683;-87
2021/04/16 09:45:03;;;;;;;12.20;10.93;;;14.80;98.20;;;;;;5023157;28;20248;-87
2021/04/16 09:47:51;;;;;;;12.43;11.13;;;14.30;98.40;;;;;;5019731;28;20592;-87
2021/04/16 09:50:40;;;;;;;12.90;11.60;;;15.30;98.70;;;;;;5015806;28;20209;-87
2021/04/16 09:53:15;;;;;;;12.13;10.93;;;14.80;98.30;;;;;;5027515;28;20583;-87
2021/04/16 09:56:05;;;;;;;13.30;11.53;;;15.00;98.30;;;;;;5021139;28;20290;-87
2021/04/16 09:59:02;;;;;;;12.47;10.57;;;15.80;94.90;;;;;;5032841;28;20207;-86
2021/04/16 10:01:29;;;;;;;13.23;9.97;;;15.70;96.10;;;;;;5030182;28;20196;-86
2021/04/16 10:03:58;;;;;;;9.63;8.73;;;15.00;95.00;;;;;;5024182;28;20224;-86
2021/04/16 10:06:40;;;;;;;8.63;7.73;;;15.10;96.00;;;;;;5022886;28;20206;-87
2021/04/16 10:09:53;;;;;;;10.27;9.27;;;14.70;92.40;;;;;;5022589;28;20247;-86
2021/04/16 10:15:22;;;;;;;10.67;9.50;;;15.60;93.40;;;;;;5021121;28;20288;-86
2021/04/16 10:18:00;;;;;;;10.13;9.13;;;15.50;92.30;;;;;;5023898;28;20233;-86
2021/04/16 10:20:29;;;;;;;11.10;9.90;;;15.30;93.10;;;;;;5026254;28;20256;-87
2021/04/16 10:23:20;;;;;;;11.70;10.50;;;15.10;92.60;;;;;;5022026;28;20287;-87
2021/04/16 13:10:07;;;;;;;13.13;11.93;;;14.30;92.50;;;;;;1047799;23;20546;-83
2021/04/16 13:12:33;;;;;;;12.40;11.20;;;15.40;87.10;;;;;;5025320;28;20236;-85
2021/04/16 13:15:00;;;;;;;13.83;12.53;;;16.80;84.70;;;;;;5020731;28;20583;-84
2021/04/16 13:17:36;;;;;;;13.40;12.03;;;15.80;80.10;;;;;;5014403;28;20197;-84
2021/04/16 13:20:05;;;;;;;13.93;12.53;;;15.90;79.40;;;;;;5022065;28;20197;-84
2021/04/16 13:22:32;;;;;;;15.00;12.73;;;14.90;85.50;;;;;;5021783;28;20243;-82
2021/04/16 13:24:58;;;;;;;12.27;11.07;;;15.10;84.60;;;;;;5018341;28;20842;-84
2021/04/16 13:27:28;;;;;;;12.97;11.67;;;15.60;83.80;;;;;;5015573;28;20260;-84
2021/04/16 13:29:55;;;;;;;13.40;12.10;;;15.90;81.00;;;;;;5010775;28;20574;-84
2021/04/16 13:32:27;;;;;;;12.93;11.63;;;16.20;82.20;;;;;;5019147;28;20584;-85
2021/04/16 13:34:54;;;;;;;13.23;11.70;;;15.30;84.90;;;;;;5019543;28;20204;-84
2021/04/16 13:37:30;;;;;;;12.80;11.60;;;13.90;86.50;;;;;;5017404;28;20231;-84
2021/04/16 13:39:58;;;;;;;12.70;11.40;;;14.80;90.20;;;;;;5022300;28;20250;-84
2021/04/16 14:11:56;;;;;;;13.13;11.83;;;13.20;93.90;;;;;;4744294;30;20390;-87
2021/04/16 14:14:26;;;;;;;13.23;11.90;;;14.90;90.60;;;;;;4750263;30;20225;-84
2021/04/16 14:16:59;;;;;;;13.57;12.27;;;15.80;90.00;;;;;;4789966;29;20279;-84
2021/04/16 14:19:31;;;;;;;14.13;12.73;;;14.60;88.40;;;;;;4828267;29;20207;-84
2021/04/16 14:21:58;;;;;;;13.77;12.37;;;13.70;89.60;;;;;;4891489;29;20230;-84
2021/04/16 14:24:26;;;;;;;14.23;12.83;;;13.60;90.30;;;;;;4936226;29;20230;-84
2021/04/16 14:26:56;;;;;;;13.77;12.37;;;14.30;90.70;;;;;;4990136;28;20197;-84
2021/04/16 14:29:26;;;;;;;13.90;12.53;;;15.10;90.70;;;;;;5016213;28;20197;-84
2021/04/16 14:31:53;;;;;;;14.20;12.70;;;14.00;90.60;;;;;;5015546;28;20197;-84
2021/04/16 14:34:23;;;;;;;13.13;11.83;;;14.00;92.30;;;;;;5015707;28;20194;-84
2021/04/16 14:36:49;;;;;;;13.90;12.07;;;15.10;89.50;;;;;;5024226;28;20192;-84
2021/04/16 14:39:16;;;;;;;13.10;11.80;;;14.90;90.70;;;;;;5028934;28;20196;-85
2021/04/16 14:41:44;;;;;;;13.23;11.93;;;15.50;85.40;;;;;;5017896;28;20586;-84
2021/04/16 14:44:16;;;;;;;12.13;10.93;;;15.30;79.60;;;;;;5024221;28;20205;-84
2021/04/16 14:46:45;;;;;;;13.80;12.47;;;15.70;84.60;;;;;;5016573;28;20193;-84
2021/04/16 14:49:12;;;;;;;13.80;12.43;;;15.50;86.70;;;;;;5015034;28;20266;-85
2021/04/16 14:51:40;;;;;;;14.33;12.80;;;14.00;87.50;;;;;;5015854;28;20951;-84
2021/04/16 14:54:11;;;;;;;13.87;12.57;;;12.80;91.20;;;;;;5015924;28;20212;-82
2021/04/16 14:56:38;;;;;;;13.93;12.53;;;12.60;93.20;;;;;;5015276;28;20224;-84
2021/04/16 14:59:11;;;;;;;14.23;12.73;;;12.40;93.00;;;;;;5015090;28;20209;-83
2021/04/16 15:01:39;;;;;;;14.30;12.93;;;12.70;93.60;;;;;;5015869;28;20232;-84
2021/04/16 15:04:05;;;;;;;13.43;12.03;;;14.00;93.00;;;;;;5015198;28;20604;-84
2021/04/16 15:06:32;;;;;;;13.57;12.27;;;14.30;85.80;;;;;;5015536;28;20683;-83
2021/04/16 15:09:01;;;;;;;13.00;11.80;;;14.10;87.60;;;;;;5015978;28;20229;-84
2021/04/16 15:11:35;;;;;;;13.50;12.20;;;14.40;86.70;;;;;;5013880;28;20233;-84
2021/04/16 15:14:03;;;;;;;14.70;13.20;;;13.30;90.80;;;;;;5010171;28;20217;-83
2021/04/16 15:16:52;;;;;;;14.83;13.27;;;12.70;93.70;;;;;;5017936;28;20205;-83
2021/04/16 15:19:56;;;;;;;13.83;12.43;;;13.00;93.50;;;;;;5014239;28;20204;-84
2021/04/16 15:22:34;;;;;;;13.80;12.50;;;13.60;94.40;;;;;;5016555;28;20208;-84
2021/04/16 15:25:05;;;;;;;13.60;12.13;;;13.60;91.00;;;;;;5022040;28;20293;-84
2021/04/16 15:27:35;;;;;;;13.43;11.67;;;13.60;90.20;;;;;;5015475;28;20232;-83
2021/04/16 15:30:05;;;;;;;13.87;12.50;;;13.40;90.60;;;;;;5016422;28;20595;-84
2021/04/16 15:32:41;;;;;;;12.40;11.10;;;13.50;90.40;;;;;;5023440;28;20211;-84
2021/04/16 15:46:48;;;;;;;12.73;11.37;;;15.60;90.30;;;;;;5023618;28;20255;-82
2021/04/16 15:49:33;;;;;;;14.00;12.17;;;15.60;87.70;;;;;;5013678;28;20615;-81
2021/04/16 15:52:02;;;;;;;13.50;12.20;;;15.00;86.20;;;;;;5028679;28;20246;-81
2021/04/16 15:54:28;;;;;;;13.30;11.90;;;13.90;84.00;;;;;;5019625;28;20632;-81
2021/04/16 15:56:58;;;;;;;12.70;11.50;;;13.10;89.50;;;;;;5032663;28;20274;-81
2021/04/16 15:59:30;;;;;;;14.57;13.07;;;12.70;90.10;;;;;;5018211;28;20212;-81
2021/04/16 16:01:58;;;;;;;13.77;12.33;;;12.00;91.40;;;;;;5013396;28;20284;-81
2021/04/16 16:04:39;;;;;;;13.90;12.50;;;11.80;92.30;;;;;;5013149;28;20699;-80
2021/04/16 16:07:12;;;;;;;13.90;12.10;;;11.60;92.90;;;;;;5015437;28;20208;-81
2021/04/16 16:09:54;;;;;;;;;;;;;;;;;;;;;
2021/04/16 16:12:30;;;;;;;16.97;12.43;;;11.70;93.40;;;;;;5031571;28;20738;-80
2021/04/16 16:15:01;;;;;;;14.17;12.70;;;12.10;93.10;;;;;;5032631;28;20225;-81
2021/04/16 16:17:35;;;;;;;13.83;12.37;;;13.40;92.10;;;;;;5017772;28;20280;-81
2021/04/16 16:20:10;;;;;;;12.77;11.47;;;13.10;90.10;;;;;;5012666;28;20313;-81
2021/04/16 16:22:54;;;;;;;14.00;12.50;;;13.40;92.00;;;;;;5022564;28;20208;-81
2021/04/16 16:25:31;;;;;;;13.53;12.23;;;12.10;91.80;;;;;;5012797;28;20307;-81